createdAt,value
2022-10-01T00:02:07.333Z,9.03
2022-10-01T00:04:34.874Z,9.07
2022-10-01T00:07:04.591Z,9.15
2022-10-01T00:09:31.792Z,9.04
2022-10-01T00:11:59.764Z,9.05
2022-10-01T00:14:26.969Z,9.08
2022-10-01T00:16:53.451Z,9.05
2022-10-01T00:19:19.808Z,8.98
2022-10-01T00:21:46.168Z,8.94
2022-10-01T00:24:12.535Z,8.89
2022-10-01T00:26:39.461Z,8.95
2022-10-01T00:29:07.062Z,8.88
2022-10-01T00:31:33.747Z,8.82
2022-10-01T00:34:00.570Z,8.73
2022-10-01T00:36:26.921Z,8.77
2022-10-01T00:38:53.322Z,8.76
2022-10-01T00:41:19.683Z,8.72
2022-10-01T00:43:46.767Z,8.70
2022-10-01T00:46:21.146Z,8.66
2022-10-01T00:48:50.633Z,8.71
2022-10-01T00:51:16.954Z,8.60
2022-10-01T00:53:43.322Z,8.62
2022-10-01T00:56:09.648Z,8.63
2022-10-01T00:58:36.033Z,8.74
2022-10-01T01:01:02.384Z,8.72
2022-10-01T01:03:28.759Z,8.70
2022-10-01T01:05:55.067Z,8.75
2022-10-01T01:08:21.369Z,8.71
2022-10-01T01:10:56.775Z,8.74
2022-10-01T01:13:24.649Z,8.81
2022-10-01T01:16:09.078Z,8.80
2022-10-01T01:18:36.901Z,8.82
2022-10-01T01:21:08.416Z,8.89
2022-10-01T01:23:44.773Z,9.02
2022-10-01T01:26:11.120Z,9.09
2022-10-01T01:28:40.827Z,9.06
2022-10-01T01:31:08.191Z,9.09
2022-10-01T01:33:34.947Z,9.17
2022-10-01T01:36:04.515Z,9.10
2022-10-01T01:38:33.126Z,9.14
2022-10-01T01:41:00.425Z,9.14
2022-10-01T01:43:29.360Z,9.19
2022-10-01T01:45:55.782Z,9.17
2022-10-01T01:48:22.546Z,9.18
2022-10-01T01:51:00.861Z,9.20
2022-10-01T01:53:30.615Z,9.16
2022-10-01T01:55:57.867Z,9.16
2022-10-01T01:58:26.157Z,9.18
2022-10-01T02:00:52.508Z,9.21
2022-10-01T02:03:21.995Z,9.17
2022-10-01T02:05:52.326Z,9.16
2022-10-01T02:08:36.857Z,9.15
2022-10-01T02:11:15.414Z,9.08
2022-10-01T02:13:48.037Z,9.03
2022-10-01T02:16:18.791Z,9.17
2022-10-01T02:18:57.569Z,9.10
2022-10-01T02:21:24.218Z,9.08
2022-10-01T02:24:01.194Z,9.07
2022-10-01T02:26:28.015Z,9.02
2022-10-01T02:28:55.287Z,9.05
2022-10-01T02:31:22.672Z,9.05
2022-10-01T02:33:49.304Z,9.06
2022-10-01T02:36:15.629Z,9.06
2022-10-01T02:38:42.168Z,9.04
2022-10-01T02:41:09.236Z,9.06
2022-10-01T02:43:41.968Z,9.06
2022-10-01T02:46:29.473Z,9.06
2022-10-01T02:48:55.781Z,9.15
2022-10-01T02:51:26.978Z,9.17
2022-10-01T02:53:55.641Z,9.19
2022-10-01T02:56:48.542Z,9.27
2022-10-01T02:59:15.217Z,9.25
2022-10-01T03:01:41.995Z,9.24
2022-10-01T03:04:08.360Z,9.27
2022-10-01T03:06:35.738Z,9.23
2022-10-01T03:09:02.103Z,9.21
2022-10-01T03:11:28.411Z,9.20
2022-10-01T03:13:54.795Z,9.17
2022-10-01T03:16:21.279Z,9.18
2022-10-01T03:18:47.640Z,9.12
2022-10-01T03:21:14.030Z,9.16
2022-10-01T03:23:40.333Z,9.05
2022-10-01T03:26:06.684Z,9.06
2022-10-01T03:28:32.991Z,8.98
2022-10-01T03:31:06.169Z,8.97
2022-10-01T03:33:32.515Z,9.02
2022-10-01T03:35:58.823Z,8.97
2022-10-01T03:38:25.137Z,8.88
2022-10-01T03:40:51.435Z,8.84
2022-10-01T03:43:17.913Z,8.73
2022-10-01T03:45:44.324Z,8.72
2022-10-01T03:48:10.658Z,8.71
2022-10-01T03:50:36.955Z,8.59
2022-10-01T03:53:03.261Z,8.57
2022-10-01T03:55:29.586Z,8.54
2022-10-01T03:57:55.938Z,8.59
2022-10-01T04:00:22.249Z,8.63
2022-10-01T04:02:48.686Z,8.55
2022-10-01T04:05:15.154Z,8.49
2022-10-01T04:07:41.829Z,8.59
2022-10-01T04:10:08.378Z,8.52
2022-10-01T04:12:34.710Z,8.53
2022-10-01T04:15:01.011Z,8.50
2022-10-01T04:17:27.326Z,8.52
2022-10-01T04:19:53.630Z,8.50
2022-10-01T04:22:19.946Z,8.53
2022-10-01T04:24:46.263Z,8.52
2022-10-01T04:27:12.570Z,8.50
2022-10-01T04:29:40.371Z,8.46
2022-10-01T04:32:07.125Z,8.50
2022-10-01T04:34:52.230Z,8.52
2022-10-01T04:37:18.930Z,8.49
2022-10-01T04:39:45.244Z,8.52
2022-10-01T04:42:13.321Z,8.51
2022-10-01T04:44:39.773Z,8.54
2022-10-01T04:47:06.518Z,8.54
2022-10-01T04:49:33.476Z,8.51
2022-10-01T04:52:00.102Z,8.50
2022-10-01T04:54:26.442Z,8.48
2022-10-01T04:56:52.871Z,8.51
2022-10-01T04:59:19.497Z,8.42
2022-10-01T05:01:45.992Z,8.43
2022-10-01T05:04:12.851Z,8.38
2022-10-01T05:06:39.409Z,8.41
2022-10-01T05:09:05.723Z,8.32
2022-10-01T05:11:32.371Z,8.37
2022-10-01T05:13:58.897Z,8.35
2022-10-01T05:16:25.360Z,8.41
2022-10-01T05:18:51.758Z,8.41
2022-10-01T05:21:18.075Z,8.36
2022-10-01T05:23:44.438Z,8.38
2022-10-01T05:26:11.119Z,8.36
2022-10-01T05:28:38.361Z,8.35
2022-10-01T05:31:04.770Z,8.36
2022-10-01T05:33:31.271Z,8.31
2022-10-01T05:35:58.013Z,8.35
2022-10-01T05:38:25.066Z,8.35
2022-10-01T05:40:51.502Z,8.32
2022-10-01T05:43:18.648Z,8.37
2022-10-01T05:45:45.220Z,8.33
2022-10-01T05:48:12.768Z,8.31
2022-10-01T05:50:40.208Z,8.28
2022-10-01T05:53:06.982Z,8.32
2022-10-01T05:55:34.390Z,8.29
2022-10-01T05:58:01.523Z,8.31
2022-10-01T06:00:29.071Z,8.28
2022-10-01T06:02:56.366Z,8.33
2022-10-01T06:05:22.891Z,8.30
2022-10-01T06:07:49.329Z,8.30
2022-10-01T06:10:15.880Z,8.30
2022-10-01T06:12:43.415Z,8.32
2022-10-01T06:15:09.935Z,8.35
2022-10-01T06:17:36.285Z,8.31
2022-10-01T06:20:02.595Z,8.36
2022-10-01T06:22:28.912Z,8.30
2022-10-01T06:24:56.773Z,8.32
2022-10-01T06:27:23.240Z,8.32
2022-10-01T06:29:49.548Z,8.29
2022-10-01T06:32:19.655Z,8.35
2022-10-01T06:34:45.962Z,8.31
2022-10-01T06:37:12.295Z,8.32
2022-10-01T06:39:38.611Z,8.29
2022-10-01T06:42:04.951Z,8.34
2022-10-01T06:44:31.249Z,8.31
2022-10-01T06:46:57.578Z,8.33
2022-10-01T06:49:24.222Z,8.32
2022-10-01T06:52:09.432Z,8.34
2022-10-01T06:54:35.830Z,8.45
2022-10-01T06:57:02.406Z,8.35
2022-10-01T06:59:31.022Z,8.36
2022-10-01T07:01:57.436Z,8.38
2022-10-01T07:04:23.782Z,8.41
2022-10-01T07:06:50.104Z,8.37
2022-10-01T07:09:16.701Z,8.41
2022-10-01T07:11:43.026Z,8.36
2022-10-01T07:14:09.382Z,8.35
2022-10-01T07:16:37.780Z,8.42
2022-10-01T07:19:04.127Z,8.47
2022-10-01T07:21:30.445Z,8.44
2022-10-01T07:23:56.761Z,8.44
2022-10-01T07:26:23.069Z,8.45
2022-10-01T07:28:49.382Z,8.49
2022-10-01T07:31:15.768Z,8.45
2022-10-01T07:33:42.091Z,8.43
2022-10-01T07:36:08.764Z,8.46
2022-10-01T07:38:35.107Z,8.45
2022-10-01T07:41:02.808Z,8.57
2022-10-01T07:43:29.602Z,8.53
2022-10-01T07:45:58.142Z,8.55
2022-10-01T07:48:24.855Z,8.51
2022-10-01T07:50:51.237Z,8.55
2022-10-01T07:53:17.693Z,8.53
2022-10-01T07:55:45.059Z,8.56
2022-10-01T07:58:14.383Z,8.58
2022-10-01T08:00:41.377Z,8.63
2022-10-01T08:03:08.714Z,8.61
2022-10-01T08:05:35.247Z,8.64
2022-10-01T08:08:05.907Z,8.70
2022-10-01T08:10:36.169Z,8.74
2022-10-01T08:13:04.685Z,8.76
2022-10-01T08:15:30.981Z,8.84
2022-10-01T08:18:00.392Z,8.83
2022-10-01T08:20:26.705Z,8.90
2022-10-01T08:22:53.055Z,8.95
2022-10-01T08:25:19.367Z,8.98
2022-10-01T08:27:45.728Z,8.96
2022-10-01T08:30:12.119Z,8.94
2022-10-01T08:32:38.453Z,9.03
2022-10-01T08:35:05.080Z,9.03
2022-10-01T08:37:31.478Z,9.11
2022-10-01T08:39:57.777Z,9.12
2022-10-01T08:42:33.391Z,9.16
2022-10-01T08:45:01.414Z,9.12
2022-10-01T08:47:49.427Z,9.14
2022-10-01T08:50:29.254Z,9.20
2022-10-01T08:52:57.128Z,9.32
2022-10-01T08:55:24.527Z,9.34
2022-10-01T08:57:58.695Z,9.37
2022-10-01T09:00:25.007Z,9.36
2022-10-01T09:02:52.815Z,9.39
2022-10-01T09:05:27.281Z,9.43
2022-10-01T09:07:53.578Z,9.49
2022-10-01T09:10:24.728Z,9.57
2022-10-01T09:13:13.598Z,9.50
2022-10-01T09:15:46.863Z,9.56
2022-10-01T09:18:22.336Z,9.49
2022-10-01T09:20:53.452Z,9.61
2022-10-01T09:23:20.169Z,9.67
2022-10-01T09:25:50.274Z,9.75
2022-10-01T09:28:19.239Z,9.71
2022-10-01T09:30:49.872Z,9.68
2022-10-01T09:33:17.306Z,9.82
2022-10-01T09:35:48.409Z,9.76
2022-10-01T09:38:19.251Z,9.84
2022-10-01T09:40:55.711Z,9.92
2022-10-01T09:43:34.961Z,9.97
2022-10-01T09:46:02.158Z,10.03
2022-10-01T09:48:28.733Z,10.10
2022-10-01T09:50:58.211Z,10.10
2022-10-01T09:53:26.424Z,10.18
2022-10-01T09:55:54.194Z,10.19
2022-10-01T09:58:21.518Z,10.23
2022-10-01T10:00:51.429Z,10.25
2022-10-01T10:03:24.737Z,10.27
2022-10-01T10:05:51.283Z,10.41
2022-10-01T10:08:23.898Z,10.50
2022-10-01T10:11:09.269Z,10.52
2022-10-01T10:13:43.269Z,10.58
2022-10-01T10:16:14.920Z,10.63
2022-10-01T10:18:41.273Z,10.69
2022-10-01T10:21:14.414Z,10.68
2022-10-01T10:23:50.822Z,10.81
2022-10-01T10:26:32.052Z,10.73
2022-10-01T10:28:59.282Z,10.86
2022-10-01T10:31:26.813Z,10.90
2022-10-01T10:34:13.589Z,10.92
2022-10-01T10:36:40.495Z,11.05
2022-10-01T10:39:07.162Z,11.02
2022-10-01T10:41:33.747Z,11.15
2022-10-01T10:44:00.758Z,11.09
2022-10-01T10:46:29.587Z,11.21
2022-10-01T10:49:00.686Z,11.25
2022-10-01T10:51:28.199Z,11.36
2022-10-01T10:53:54.850Z,11.43
2022-10-01T10:56:22.786Z,11.54
2022-10-01T10:58:49.930Z,11.69
2022-10-01T11:01:18.676Z,11.77
2022-10-01T11:03:48.856Z,11.90
2022-10-01T11:06:15.237Z,11.89
2022-10-01T11:08:42.042Z,12.04
2022-10-01T11:11:17.463Z,12.19
2022-10-01T11:13:49.538Z,12.30
2022-10-01T11:16:34.534Z,12.40
2022-10-01T11:19:19.951Z,12.53
2022-10-01T11:21:58.580Z,12.60
2022-10-01T11:24:29.703Z,12.74
2022-10-01T11:26:58.826Z,12.85
2022-10-01T11:29:25.137Z,12.95
2022-10-01T11:32:10.408Z,12.94
2022-10-01T11:34:48.692Z,12.85
2022-10-01T11:37:21.392Z,12.89
2022-10-01T11:39:47.703Z,12.91
2022-10-01T11:42:17.898Z,12.83
2022-10-01T11:44:47.255Z,12.96
2022-10-01T11:47:15.570Z,12.96
2022-10-01T11:49:57.240Z,13.09
2022-10-01T11:52:26.610Z,13.36
2022-10-01T11:54:56.436Z,13.37
2022-10-01T11:57:41.859Z,13.46
2022-10-01T12:00:08.661Z,13.53
2022-10-01T12:02:35.774Z,13.71
2022-10-01T12:05:15.248Z,13.76
2022-10-01T12:07:55.621Z,13.52
2022-10-01T12:10:43.026Z,13.51
2022-10-01T12:13:15.921Z,13.37
2022-10-01T12:15:49.266Z,13.33
2022-10-01T12:18:31.981Z,13.16
2022-10-01T12:21:01.705Z,13.24
2022-10-01T12:23:32.451Z,13.44
2022-10-01T12:26:13.609Z,13.55
2022-10-01T12:28:42.186Z,13.46
2022-10-01T12:31:12.479Z,13.46
2022-10-01T12:33:51.224Z,13.50
2022-10-01T12:36:17.492Z,13.38
2022-10-01T12:38:43.792Z,13.28
2022-10-01T12:41:19.218Z,13.17
2022-10-01T12:43:51.603Z,13.20
2022-10-01T12:46:21.263Z,13.23
2022-10-01T12:49:03.953Z,13.24
2022-10-01T12:51:37.130Z,13.45
2022-10-01T12:54:13.607Z,13.43
2022-10-01T12:56:49.085Z,13.35
2022-10-01T12:59:28.199Z,13.28
2022-10-01T13:01:58.143Z,13.22
2022-10-01T13:04:36.834Z,13.34
2022-10-01T13:07:08.227Z,13.38
2022-10-01T13:09:53.320Z,13.37
2022-10-01T13:12:19.585Z,13.47
2022-10-01T13:14:45.964Z,13.50
2022-10-01T13:17:15.541Z,13.51
2022-10-01T13:19:45.172Z,13.49
2022-10-01T13:22:32.383Z,13.38
2022-10-01T13:25:07.906Z,13.41
2022-10-01T13:27:36.136Z,13.39
2022-10-01T13:30:07.707Z,13.52
2022-10-01T13:32:50.788Z,13.58
2022-10-01T13:35:24.392Z,13.67
2022-10-01T13:37:50.738Z,13.49
2022-10-01T13:40:37.324Z,13.75
2022-10-01T13:43:18.189Z,13.92
2022-10-01T13:45:45.199Z,13.74
2022-10-01T13:48:11.744Z,13.92
2022-10-01T13:50:38.568Z,14.25
2022-10-01T13:53:15.441Z,14.29
2022-10-01T13:55:42.193Z,14.40
2022-10-01T13:58:27.402Z,14.59
2022-10-01T14:00:54.400Z,14.29
2022-10-01T14:03:42.111Z,13.90
2022-10-01T14:06:14.211Z,13.81
2022-10-01T14:08:54.467Z,13.79
2022-10-01T14:11:42.891Z,13.71
2022-10-01T14:14:31.004Z,13.82
2022-10-01T14:16:57.351Z,13.88
2022-10-01T14:19:24.478Z,13.29
2022-10-01T14:21:53.903Z,11.97
2022-10-01T14:24:35.996Z,11.28
2022-10-01T14:27:04.240Z,10.98
2022-10-01T14:29:39.615Z,10.89
2022-10-01T14:32:05.917Z,10.75
2022-10-01T14:35:04.711Z,10.52
2022-10-01T14:37:31.095Z,10.59
2022-10-01T14:40:17.453Z,10.60
2022-10-01T14:42:43.858Z,10.47
2022-10-01T14:45:14.413Z,10.41
2022-10-01T14:47:40.754Z,10.45
2022-10-01T14:50:11.033Z,10.34
2022-10-01T14:52:37.346Z,10.44
2022-10-01T14:55:07.009Z,10.60
2022-10-01T14:57:40.249Z,10.67
2022-10-01T15:00:09.820Z,10.79
2022-10-01T15:02:43.195Z,10.88
2022-10-01T15:05:18.050Z,11.00
2022-10-01T15:07:47.090Z,11.06
2022-10-01T15:10:16.132Z,11.22
2022-10-01T15:12:48.884Z,11.27
2022-10-01T15:15:16.161Z,11.35
2022-10-01T15:17:42.484Z,11.32
2022-10-01T15:20:09.172Z,11.31
2022-10-01T15:22:35.481Z,11.33
2022-10-01T15:25:01.883Z,11.41
2022-10-01T15:27:28.910Z,11.35
2022-10-01T15:29:56.696Z,11.25
2022-10-01T15:32:23.612Z,11.19
2022-10-01T15:34:51.011Z,11.26
2022-10-01T15:37:18.142Z,11.29
2022-10-01T15:39:45.915Z,11.35
2022-10-01T15:42:28.474Z,11.55
2022-10-01T15:45:06.748Z,11.71
2022-10-01T15:47:34.040Z,11.64
2022-10-01T15:50:04.731Z,11.63
2022-10-01T15:52:54.101Z,11.53
2022-10-01T15:55:23.446Z,11.34
2022-10-01T15:57:50.649Z,11.15
2022-10-01T16:00:20.314Z,11.22
2022-10-01T16:02:46.628Z,10.84
2022-10-01T16:05:13.985Z,10.86
2022-10-01T16:07:40.489Z,10.82
2022-10-01T16:10:33.419Z,10.60
2022-10-01T16:12:59.742Z,10.49
2022-10-01T16:15:26.987Z,10.54
2022-10-01T16:17:54.322Z,10.54
2022-10-01T16:20:34.215Z,10.36
2022-10-01T16:23:19.715Z,10.45
2022-10-01T16:25:46.406Z,10.55
2022-10-01T16:28:28.941Z,10.50
2022-10-01T16:30:55.553Z,10.52
2022-10-01T16:33:21.866Z,10.53
2022-10-01T16:35:48.259Z,10.49
2022-10-01T16:38:14.645Z,10.39
2022-10-01T16:40:42.133Z,10.33
2022-10-01T16:43:09.764Z,10.28
2022-10-01T16:45:36.887Z,10.26
2022-10-01T16:48:05.722Z,10.16
2022-10-01T16:50:32.030Z,10.21
2022-10-01T16:53:01.234Z,10.11
2022-10-01T16:55:31.299Z,10.14
2022-10-01T16:57:57.673Z,10.02
2022-10-01T17:00:25.301Z,10.02
2022-10-01T17:02:52.115Z,9.95
2022-10-01T17:05:20.117Z,9.97
2022-10-01T17:07:46.643Z,9.96
2022-10-01T17:10:13.533Z,9.94
2022-10-01T17:12:42.869Z,9.83
2022-10-01T17:15:13.004Z,9.86
2022-10-01T17:17:39.390Z,9.90
2022-10-01T17:20:05.762Z,9.89
2022-10-01T17:22:32.076Z,9.85
2022-10-01T17:24:58.559Z,9.86
2022-10-01T17:27:24.868Z,10.00
2022-10-01T17:29:52.083Z,10.05
2022-10-01T17:32:18.578Z,10.09
2022-10-01T17:34:45.319Z,10.15
2022-10-01T17:37:11.646Z,10.26
2022-10-01T17:39:38.068Z,10.36
2022-10-01T17:42:04.379Z,10.38
2022-10-01T17:44:30.873Z,10.36
2022-10-01T17:46:57.173Z,10.36
2022-10-01T17:49:23.583Z,10.33
2022-10-01T17:51:49.974Z,10.31
2022-10-01T17:54:16.432Z,10.37
2022-10-01T17:56:44.086Z,10.31
2022-10-01T17:59:10.847Z,10.35
2022-10-01T18:01:37.276Z,10.38
2022-10-01T18:04:05.527Z,10.38
2022-10-01T18:06:32.069Z,10.24
2022-10-01T18:08:59.006Z,10.17
2022-10-01T18:11:26.083Z,10.07
2022-10-01T18:13:53.063Z,10.25
2022-10-01T18:16:19.771Z,10.20
2022-10-01T18:19:51.890Z,10.13
2022-10-01T18:21:32.938Z,10.15
2022-10-01T18:24:03.419Z,10.17
2022-10-01T18:26:31.494Z,10.16
2022-10-01T18:28:57.983Z,10.13
2022-10-01T18:31:27.322Z,10.12
2022-10-01T18:33:54.451Z,10.05
2022-10-01T18:36:20.986Z,10.01
2022-10-01T18:38:47.791Z,9.93
2022-10-01T18:41:17.922Z,9.98
2022-10-01T18:43:45.883Z,9.98
2022-10-01T18:46:14.909Z,10.04
2022-10-01T18:48:48.182Z,10.00
2022-10-01T18:51:26.878Z,9.96
2022-10-01T18:54:05.871Z,9.90
2022-10-01T18:56:35.715Z,9.79
2022-10-01T18:59:06.415Z,9.74
2022-10-01T19:01:39.834Z,9.92
2022-10-01T19:04:09.401Z,9.88
2022-10-01T19:06:44.857Z,9.89
2022-10-01T19:09:17.951Z,9.91
2022-10-01T19:11:44.330Z,9.96
2022-10-01T19:14:29.406Z,10.02
2022-10-01T19:17:12.442Z,10.03
2022-10-01T19:19:38.725Z,10.04
2022-10-01T19:22:15.263Z,10.06
2022-10-01T19:24:47.338Z,10.26
2022-10-01T19:27:14.324Z,10.28
2022-10-01T19:30:15.925Z,10.16
2022-10-01T19:32:43.761Z,10.12
2022-10-01T19:35:15.801Z,10.05
2022-10-01T19:37:52.003Z,10.08
2022-10-01T19:40:22.778Z,10.12
2022-10-01T19:42:51.603Z,9.98
2022-10-01T19:45:17.908Z,9.93
2022-10-01T19:47:45.875Z,9.98
2022-10-01T19:50:15.470Z,9.77
2022-10-01T19:52:45.042Z,9.65
2022-10-01T19:55:13.015Z,9.69
2022-10-01T19:57:40.027Z,9.67
2022-10-01T20:00:12.262Z,9.48
2022-10-01T20:02:58.211Z,9.36
2022-10-01T20:05:28.949Z,9.30
2022-10-01T20:08:14.078Z,9.27
2022-10-01T20:10:52.660Z,9.30
2022-10-01T20:13:31.050Z,9.27
2022-10-01T20:16:04.783Z,9.15
2022-10-01T20:18:37.624Z,9.58
2022-10-01T20:21:09.913Z,9.28
2022-10-01T20:23:38.689Z,9.23
2022-10-01T20:26:08.084Z,9.17
2022-10-01T20:28:52.184Z,9.12
2022-10-01T20:31:18.757Z,9.16
2022-10-01T20:33:51.632Z,9.28
2022-10-01T20:36:17.950Z,9.51
2022-10-01T20:38:49.209Z,9.54
2022-10-01T20:41:17.013Z,9.59
2022-10-01T20:43:46.115Z,9.73
2022-10-01T20:46:25.409Z,9.86
2022-10-01T20:48:53.499Z,9.86
2022-10-01T20:51:24.164Z,9.90
2022-10-01T20:53:55.632Z,9.75
2022-10-01T20:56:23.700Z,9.86
2022-10-01T20:58:54.162Z,9.80
2022-10-01T21:01:21.518Z,9.77
2022-10-01T21:03:49.500Z,9.83
2022-10-01T21:06:21.031Z,9.96
2022-10-01T21:08:49.745Z,10.08
2022-10-01T21:11:18.360Z,9.97
2022-10-01T21:13:47.307Z,10.04
2022-10-01T21:16:16.699Z,9.99
2022-10-01T21:18:43.274Z,10.03
2022-10-01T21:21:18.654Z,10.10
2022-10-01T21:24:04.822Z,10.00
2022-10-01T21:26:31.450Z,10.04
2022-10-01T21:28:57.710Z,10.05
2022-10-01T21:31:42.559Z,10.20
2022-10-01T21:34:12.966Z,10.07
2022-10-01T21:36:53.917Z,9.98
2022-10-01T21:39:33.283Z,9.95
2022-10-01T21:42:09.968Z,9.92
2022-10-01T21:44:45.387Z,9.90
2022-10-01T21:47:17.823Z,9.82
2022-10-01T21:49:47.345Z,9.70
2022-10-01T21:52:21.351Z,9.75
2022-10-01T21:55:06.440Z,9.86
2022-10-01T21:57:54.774Z,9.73
2022-10-01T22:00:23.922Z,9.65
2022-10-01T22:02:50.236Z,9.66
2022-10-01T22:05:23.339Z,9.82
2022-10-01T22:07:52.786Z,9.82
2022-10-01T22:10:24.503Z,9.79
2022-10-01T22:12:51.787Z,9.90
2022-10-01T22:15:27.231Z,9.92
2022-10-01T22:17:53.730Z,9.90
2022-10-01T22:20:20.448Z,10.02
2022-10-01T22:22:46.808Z,10.03
2022-10-01T22:25:13.702Z,10.00
2022-10-01T22:27:44.081Z,9.94
2022-10-01T22:30:48.673Z,10.03
2022-10-01T22:33:33.733Z,10.16
2022-10-01T22:36:02.272Z,10.07
2022-10-01T22:38:42.738Z,10.00
2022-10-01T22:41:35.385Z,9.93
2022-10-01T22:44:17.979Z,9.93
2022-10-01T22:46:58.676Z,9.86
2022-10-01T22:49:28.093Z,9.85
2022-10-01T22:52:13.252Z,9.91
2022-10-01T22:54:48.599Z,9.84
2022-10-01T22:57:19.110Z,9.65
2022-10-01T22:59:54.496Z,9.56
2022-10-01T23:02:30.110Z,9.36
2022-10-01T23:05:11.228Z,9.20
2022-10-01T23:07:37.490Z,9.09
2022-10-01T23:10:15.257Z,8.97
2022-10-01T23:12:47.126Z,8.80
2022-10-01T23:15:16.267Z,8.76
2022-10-01T23:17:45.104Z,8.62
2022-10-01T23:20:11.614Z,8.59
2022-10-01T23:22:44.192Z,8.62
2022-10-01T23:25:19.720Z,8.61
2022-10-01T23:27:55.489Z,8.55
2022-10-01T23:30:21.877Z,8.57
2022-10-01T23:33:08.168Z,8.49
2022-10-01T23:35:42.809Z,8.44
2022-10-01T23:38:24.182Z,8.35
2022-10-01T23:40:51.809Z,8.30
2022-10-01T23:43:28.327Z,8.31
2022-10-01T23:46:05.424Z,8.24
2022-10-01T23:48:35.064Z,8.15
2022-10-01T23:51:02.469Z,8.32
2022-10-01T23:53:37.792Z,8.36
2022-10-01T23:56:42.659Z,8.32
2022-10-01T23:59:16.090Z,8.16
